createdAt,value
2022-12-18T00:01:27.967Z,-3.80
2022-12-18T00:03:56.524Z,-3.80
2022-12-18T00:06:25.753Z,-3.90
2022-12-18T00:08:52.692Z,-3.80
2022-12-18T00:11:24.252Z,-3.90
2022-12-18T00:13:52.768Z,-3.90
2022-12-18T00:16:23.359Z,-3.90
2022-12-18T00:18:55.385Z,-3.90
2022-12-18T00:21:22.792Z,-3.90
2022-12-18T00:23:51.301Z,-3.90
2022-12-18T00:26:23.203Z,-3.90
2022-12-18T00:28:51.013Z,-3.90
2022-12-18T00:31:22.715Z,-3.90
2022-12-18T00:33:50.026Z,-3.90
2022-12-18T00:36:31.400Z,-3.90
2022-12-18T00:39:00.116Z,-3.90
2022-12-18T00:41:46.806Z,-3.90
2022-12-18T00:44:16.724Z,-4.00
2022-12-18T00:46:45.518Z,-3.90
2022-12-18T00:49:12.351Z,-3.90
2022-12-18T00:51:39.195Z,-4.00
2022-12-18T00:54:06.613Z,-4.00
2022-12-18T00:56:33.323Z,-4.00
2022-12-18T00:59:00.042Z,-4.00
2022-12-18T01:01:26.810Z,-4.00
2022-12-18T01:03:53.567Z,-4.00
2022-12-18T01:06:20.835Z,-4.00
2022-12-18T01:08:47.648Z,-4.00
2022-12-18T01:11:18.658Z,-4.00
2022-12-18T01:13:45.595Z,-4.00
2022-12-18T01:16:15.164Z,-4.00
2022-12-18T01:18:42.325Z,-4.00
2022-12-18T01:21:13.029Z,-4.00
2022-12-18T01:23:40.561Z,-4.10
2022-12-18T01:26:16.436Z,-4.00
2022-12-18T01:28:44.846Z,-4.10
2022-12-18T01:31:14.941Z,-4.00
2022-12-18T01:33:42.052Z,-4.10
2022-12-18T01:36:15.019Z,-4.10
2022-12-18T01:38:41.977Z,-4.10
2022-12-18T01:41:10.128Z,-4.10
2022-12-18T01:43:55.083Z,-4.10
2022-12-18T01:46:24.797Z,-4.00
2022-12-18T01:48:58.719Z,-4.00
2022-12-18T01:51:30.671Z,-4.00
2022-12-18T01:53:58.937Z,-4.00
2022-12-18T01:56:25.672Z,-4.00
2022-12-18T01:59:01.968Z,-3.90
2022-12-18T02:01:31.990Z,-3.90
2022-12-18T02:04:25.663Z,-3.90
2022-12-18T02:07:21.757Z,-3.90
2022-12-18T02:09:57.964Z,-3.80
2022-12-18T02:12:31.517Z,-3.80
2022-12-18T02:15:33.107Z,-3.80
2022-12-18T02:18:34.602Z,-3.70
2022-12-18T02:22:08.908Z,-3.70
2022-12-18T02:24:53.561Z,-3.70
2022-12-18T02:27:20.668Z,-3.80
2022-12-18T02:29:58.771Z,-3.80
2022-12-18T02:32:32.561Z,-3.80
2022-12-18T02:35:01.607Z,-3.80
2022-12-18T02:37:30.611Z,-3.80
2022-12-18T02:40:00.020Z,-3.80
2022-12-18T02:42:28.984Z,-3.80
2022-12-18T02:44:55.808Z,-3.80
2022-12-18T02:47:28.739Z,-3.80
2022-12-18T02:50:25.717Z,-3.90
2022-12-18T02:53:25.158Z,-3.90
2022-12-18T02:56:14.056Z,-3.90
2022-12-18T02:59:08.150Z,-3.90
2022-12-18T03:01:53.175Z,-4.00
2022-12-18T03:04:23.788Z,-4.00
2022-12-18T03:06:59.417Z,-4.10
2022-12-18T03:09:37.601Z,-4.10
2022-12-18T03:12:24.270Z,-4.20
2022-12-18T03:15:22.653Z,-4.20
2022-12-18T03:18:00.397Z,-4.30
2022-12-18T03:20:31.785Z,-4.30
2022-12-18T03:23:12.406Z,-4.40
2022-12-18T03:25:45.010Z,-4.50
2022-12-18T03:28:18.831Z,-4.40
2022-12-18T03:30:50.768Z,-4.50
2022-12-18T03:33:33.200Z,-4.60
2022-12-18T03:35:59.992Z,-4.60
2022-12-18T03:38:26.842Z,-4.60
2022-12-18T03:41:21.375Z,-4.60
2022-12-18T03:44:52.120Z,-4.70
2022-12-18T03:47:32.694Z,-4.60
2022-12-18T03:50:12.861Z,-4.70
2022-12-18T03:52:50.466Z,-4.60
2022-12-18T03:55:21.895Z,-4.60
2022-12-18T03:57:50.581Z,-4.60
2022-12-18T04:00:20.778Z,-4.60
2022-12-18T04:02:57.229Z,-4.60
2022-12-18T04:05:28.120Z,-4.60
2022-12-18T04:07:57.190Z,-4.60
2022-12-18T04:10:23.927Z,-4.50
2022-12-18T04:12:50.628Z,-4.50
2022-12-18T04:15:17.539Z,-4.50
2022-12-18T04:17:50.187Z,-4.50
2022-12-18T04:20:17.997Z,-4.60
2022-12-18T04:22:44.762Z,-4.60
2022-12-18T04:25:12.847Z,-4.60
2022-12-18T04:27:39.775Z,-4.60
2022-12-18T04:30:07.538Z,-4.60
2022-12-18T04:32:35.524Z,-4.60
2022-12-18T04:35:05.029Z,-4.50
2022-12-18T04:37:31.734Z,-4.60
2022-12-18T04:39:58.457Z,-4.60
2022-12-18T04:42:25.192Z,-4.60
2022-12-18T04:44:51.918Z,-4.60
2022-12-18T04:47:18.686Z,-4.60
2022-12-18T04:49:45.447Z,-4.60
2022-12-18T04:52:12.195Z,-4.70
2022-12-18T04:54:38.884Z,-4.70
2022-12-18T04:57:05.619Z,-4.60
2022-12-18T04:59:32.326Z,-4.60
2022-12-18T05:01:59.201Z,-4.70
2022-12-18T05:04:26.021Z,-4.70
2022-12-18T05:06:52.771Z,-4.70
2022-12-18T05:09:19.549Z,-4.70
2022-12-18T05:11:47.559Z,-4.70
2022-12-18T05:14:14.490Z,-4.70
2022-12-18T05:16:41.395Z,-4.60
2022-12-18T05:19:08.233Z,-4.60
2022-12-18T05:21:34.951Z,-4.60
2022-12-18T05:24:01.693Z,-4.60
2022-12-18T05:26:28.468Z,-4.60
2022-12-18T05:28:55.171Z,-4.60
2022-12-18T05:31:22.037Z,-4.60
2022-12-18T05:33:48.801Z,-4.50
2022-12-18T05:36:15.663Z,-4.60
2022-12-18T05:38:42.642Z,-4.60
2022-12-18T05:41:10.501Z,-4.60
2022-12-18T05:43:40.023Z,-4.60
2022-12-18T05:46:12.936Z,-4.60
2022-12-18T05:48:39.972Z,-4.60
2022-12-18T05:51:10.404Z,-4.50
2022-12-18T05:53:38.598Z,-4.50
2022-12-18T05:56:09.890Z,-4.40
2022-12-18T05:58:42.527Z,-4.40
2022-12-18T06:01:20.740Z,-4.30
2022-12-18T06:03:48.008Z,-4.30
2022-12-18T06:06:25.229Z,-4.30
2022-12-18T06:08:54.733Z,-4.30
2022-12-18T06:11:31.099Z,-4.30
2022-12-18T06:13:59.473Z,-4.30
2022-12-18T06:16:31.678Z,-4.40
2022-12-18T06:19:05.256Z,-4.40
2022-12-18T06:21:33.305Z,-4.40
2022-12-18T06:24:01.569Z,-4.50
2022-12-18T06:26:56.809Z,-4.50
2022-12-18T06:29:23.609Z,-4.60
2022-12-18T06:31:50.381Z,-4.60
2022-12-18T06:34:19.660Z,-4.60
2022-12-18T06:36:46.568Z,-4.70
2022-12-18T06:39:13.422Z,-4.70
2022-12-18T06:41:40.298Z,-4.70
2022-12-18T06:44:07.640Z,-4.70
2022-12-18T06:46:34.639Z,-4.80
2022-12-18T06:49:01.545Z,-4.70
2022-12-18T06:51:29.651Z,-4.70
2022-12-18T06:53:56.532Z,-4.80
2022-12-18T06:56:23.319Z,-4.60
2022-12-18T06:58:50.016Z,-4.70
2022-12-18T07:01:16.771Z,-4.60
2022-12-18T07:03:50.717Z,-4.60
2022-12-18T07:06:21.145Z,-4.60
2022-12-18T07:08:49.675Z,-4.60
2022-12-18T07:11:17.690Z,-4.50
2022-12-18T07:13:45.146Z,-4.50
2022-12-18T08:26:24.009Z,-4.40
2022-12-18T08:28:58.601Z,-4.20
2022-12-18T08:31:40.786Z,-4.10
2022-12-18T08:34:27.669Z,-3.40
2022-12-18T08:37:00.611Z,-3.70
2022-12-18T08:39:35.101Z,-3.80
2022-12-18T09:20:05.930Z,-0.70
2022-12-18T10:02:06.067Z,0.30
2022-12-18T10:08:49.492Z,0.30
2022-12-18T10:20:15.310Z,0.60
2022-12-18T10:23:20.729Z,0.80
2022-12-18T10:26:10.544Z,0.90
2022-12-18T10:28:41.617Z,1.00
2022-12-18T10:31:20.938Z,1.10
2022-12-18T10:33:51.922Z,1.20
2022-12-18T10:36:18.654Z,1.30
2022-12-18T10:38:45.411Z,1.40
2022-12-18T10:41:26.768Z,1.40
2022-12-18T10:44:18.555Z,1.50
2022-12-18T10:46:56.830Z,1.50
2022-12-18T10:49:31.520Z,1.50
2022-12-18T10:52:23.975Z,1.40
2022-12-18T10:54:59.479Z,1.40
2022-12-18T10:57:38.074Z,1.50
2022-12-18T11:00:31.183Z,1.50
2022-12-18T11:02:58.725Z,1.50
2022-12-18T11:05:34.238Z,1.50
2022-12-18T11:08:02.472Z,1.50
2022-12-18T11:10:36.280Z,1.60
2022-12-18T11:13:21.603Z,1.60
2022-12-18T11:15:49.318Z,1.50
2022-12-18T11:18:25.035Z,1.50
2022-12-18T11:21:08.863Z,1.50
2022-12-18T11:23:38.262Z,1.50
2022-12-18T11:26:06.983Z,1.40
2022-12-18T11:28:43.275Z,1.40
2022-12-18T11:31:29.351Z,1.40
2022-12-18T11:36:50.649Z,1.40
2022-12-18T11:39:43.581Z,1.40
2022-12-18T11:42:25.110Z,1.30
2022-12-18T11:44:59.751Z,1.30
2022-12-18T11:48:07.881Z,1.30
2022-12-18T11:50:52.069Z,1.30
2022-12-18T11:53:19.516Z,0.90
2022-12-18T11:56:00.929Z,1.30
2022-12-18T11:58:58.563Z,1.30
2022-12-18T12:02:12.393Z,1.30
2022-12-18T12:05:27.256Z,1.30
2022-12-18T12:08:25.565Z,1.30
2022-12-18T12:11:21.163Z,1.40
2022-12-18T12:14:09.279Z,1.40
2022-12-18T12:16:50.127Z,1.40
2022-12-18T12:19:40.140Z,1.40
2022-12-18T12:22:31.986Z,1.40
2022-12-18T12:25:53.207Z,1.40
2022-12-18T12:29:21.125Z,1.40
2022-12-18T12:32:14.060Z,1.50
2022-12-18T12:35:26.337Z,1.50
2022-12-18T12:38:13.673Z,1.50
2022-12-18T12:40:56.968Z,1.50
2022-12-18T12:43:50.489Z,1.50
2022-12-18T12:46:22.744Z,1.60
2022-12-18T12:48:59.277Z,1.60
2022-12-18T12:51:35.661Z,1.60
2022-12-18T12:54:07.445Z,1.70
2022-12-18T12:56:51.313Z,1.70
2022-12-18T12:59:58.963Z,1.70
2022-12-18T13:02:59.392Z,1.70
2022-12-18T13:05:55.971Z,1.70
2022-12-18T13:08:34.219Z,1.70
2022-12-18T13:11:22.189Z,1.80
2022-12-18T13:13:55.993Z,1.80
2022-12-18T13:16:28.458Z,1.80
2022-12-18T13:18:59.741Z,1.80
2022-12-18T13:21:31.896Z,1.80
2022-12-18T13:24:31.653Z,1.80
2022-12-18T13:26:58.546Z,1.80
2022-12-18T13:29:45.726Z,1.80
2022-12-18T13:32:27.595Z,1.80
2022-12-18T13:35:19.236Z,1.80
2022-12-18T13:37:55.970Z,1.80
2022-12-18T13:40:41.297Z,1.70
2022-12-18T13:43:37.851Z,1.70
2022-12-18T13:46:29.138Z,1.60
2022-12-18T13:49:06.605Z,1.60
2022-12-18T13:51:36.323Z,1.50
2022-12-18T13:54:33.912Z,1.50
2022-12-18T13:57:01.115Z,1.50
2022-12-18T13:59:40.892Z,1.50
2022-12-18T14:02:22.956Z,1.50
2022-12-18T14:04:51.671Z,1.50
2022-12-18T14:07:30.819Z,1.50
2022-12-18T14:10:18.752Z,1.50
2022-12-18T14:12:57.914Z,1.50
2022-12-18T14:15:27.921Z,1.50
2022-12-18T14:18:00.150Z,1.50
2022-12-18T14:20:33.462Z,1.70
2022-12-18T14:23:01.761Z,1.50
2022-12-18T14:25:31.238Z,1.50
2022-12-18T14:28:16.307Z,1.50
2022-12-18T14:30:46.047Z,1.40
2022-12-18T14:33:23.457Z,1.40
2022-12-18T14:36:04.560Z,1.40
2022-12-18T14:38:36.365Z,1.40
2022-12-18T14:41:14.926Z,1.30
2022-12-18T14:43:45.099Z,1.30
2022-12-18T14:46:47.132Z,1.30
2022-12-18T14:49:26.035Z,1.30
2022-12-18T14:51:57.529Z,1.30
2022-12-18T14:54:26.994Z,1.30
2022-12-18T14:57:19.627Z,1.30
2022-12-18T14:59:46.419Z,1.30
2022-12-18T15:02:29.535Z,1.30
2022-12-18T15:05:30.772Z,1.30
2022-12-18T15:08:01.336Z,1.30
2022-12-18T15:10:31.892Z,1.30
2022-12-18T15:13:01.461Z,1.30
2022-12-18T15:15:34.717Z,1.40
2022-12-18T15:18:32.981Z,1.40
2022-12-18T15:21:09.650Z,1.40
2022-12-18T15:23:50.313Z,1.40
2022-12-18T15:26:21.694Z,1.40
2022-12-18T15:28:59.372Z,1.40
2022-12-18T15:31:36.478Z,1.40
2022-12-18T15:34:08.935Z,1.40
2022-12-18T15:36:38.961Z,1.40
2022-12-18T15:39:06.852Z,1.40
2022-12-18T15:41:36.895Z,1.40
2022-12-18T15:44:22.198Z,1.40
2022-12-18T15:46:49.057Z,1.30
2022-12-18T15:49:15.757Z,1.00
2022-12-18T15:51:42.920Z,1.30
2022-12-18T15:54:17.025Z,1.30
2022-12-18T15:57:02.678Z,1.30
2022-12-18T15:59:29.490Z,1.20
2022-12-18T16:01:57.633Z,1.20
2022-12-18T16:04:25.680Z,1.20
2022-12-18T16:07:14.691Z,1.30
2022-12-18T16:09:39.679Z,1.30
2022-12-18T16:12:15.138Z,1.30
2022-12-18T16:14:42.027Z,1.30
2022-12-18T16:17:13.332Z,1.30
2022-12-18T16:19:40.347Z,1.30
2022-12-18T16:22:13.555Z,1.30
2022-12-18T16:24:40.414Z,1.30
2022-12-18T16:27:07.170Z,1.40
2022-12-18T16:29:33.936Z,1.30
2022-12-18T16:32:01.853Z,1.40
2022-12-18T16:34:36.114Z,1.40
2022-12-18T16:37:06.784Z,1.40
2022-12-18T16:39:35.454Z,1.40
2022-12-18T16:42:20.010Z,1.40
2022-12-18T16:44:49.407Z,1.40
2022-12-18T16:47:17.683Z,1.40
2022-12-18T16:49:45.828Z,1.30
2022-12-18T16:52:13.711Z,1.30
2022-12-18T16:54:40.583Z,1.30
2022-12-18T16:57:07.313Z,1.30
2022-12-18T16:59:34.171Z,1.20
2022-12-18T17:02:01.898Z,1.20
2022-12-18T17:04:28.826Z,1.20
2022-12-18T17:06:55.563Z,1.20
2022-12-18T17:09:25.743Z,1.20
2022-12-18T17:11:54.004Z,1.20
2022-12-18T17:14:24.900Z,1.20
2022-12-18T17:17:19.280Z,1.20
2022-12-18T17:19:40.382Z,1.20
2022-12-18T17:22:08.209Z,1.20
2022-12-18T17:24:35.751Z,1.20
2022-12-18T17:27:04.128Z,1.20
2022-12-18T17:29:30.994Z,1.20
2022-12-18T17:32:00.179Z,1.20
2022-12-18T17:34:27.922Z,1.20
2022-12-18T17:36:55.119Z,1.20
2022-12-18T17:39:22.428Z,1.20
2022-12-18T17:41:49.777Z,1.20
2022-12-18T17:44:17.803Z,1.20
2022-12-18T17:46:45.973Z,1.30
2022-12-18T17:49:13.892Z,1.30
2022-12-18T17:51:42.734Z,1.30
2022-12-18T17:54:10.522Z,1.40
2022-12-18T17:56:39.500Z,1.40
2022-12-18T17:59:06.992Z,1.40
2022-12-18T18:01:36.375Z,1.40
2022-12-18T18:04:07.140Z,1.40
2022-12-18T18:06:34.473Z,1.40
2022-12-18T18:09:15.992Z,1.40
2022-12-18T18:12:05.645Z,1.40
2022-12-18T18:14:32.987Z,1.40
2022-12-18T18:17:04.195Z,1.40
2022-12-18T18:19:32.853Z,1.40
2022-12-18T18:21:59.746Z,1.50
2022-12-18T18:24:27.082Z,1.50
2022-12-18T18:26:59.356Z,1.50
2022-12-18T18:29:27.850Z,1.50
2022-12-18T18:31:56.495Z,1.50
2022-12-18T18:34:27.451Z,1.50
2022-12-18T18:36:54.348Z,1.50
2022-12-18T18:39:21.254Z,1.60
2022-12-18T18:41:48.874Z,1.60
2022-12-18T18:44:18.103Z,1.60
2022-12-18T18:46:45.395Z,1.70
2022-12-18T18:49:13.705Z,1.70
2022-12-18T18:51:41.805Z,1.70
2022-12-18T18:54:09.517Z,1.80
2022-12-18T18:59:31.783Z,1.80
2022-12-18T19:02:00.237Z,1.90
2022-12-18T19:04:31.191Z,1.90
2022-12-18T19:06:57.936Z,1.90
2022-12-18T19:09:24.949Z,2.00
2022-12-18T19:12:10.841Z,2.40
2022-12-18T19:14:37.564Z,2.00
2022-12-18T19:17:04.402Z,2.10
2022-12-18T19:19:31.232Z,2.10
2022-12-18T19:21:58.048Z,2.10
2022-12-18T19:24:24.778Z,2.20
2022-12-18T19:26:52.140Z,2.10
2022-12-18T19:29:21.615Z,2.20
2022-12-18T19:31:48.391Z,2.20
2022-12-18T19:34:15.241Z,2.20
2022-12-18T19:36:42.187Z,2.30
2022-12-18T19:39:17.491Z,2.30
2022-12-18T19:41:44.989Z,2.30
2022-12-18T19:44:14.750Z,2.30
2022-12-18T19:46:42.966Z,2.20
2022-12-18T19:49:17.634Z,2.20
2022-12-18T19:51:45.844Z,2.20
2022-12-18T19:54:17.234Z,2.20
2022-12-18T19:56:45.024Z,2.20
2022-12-18T19:59:12.470Z,2.10
2022-12-18T20:01:39.385Z,2.10
2022-12-18T20:04:06.456Z,2.00
2022-12-18T20:06:49.778Z,2.00
2022-12-18T20:09:17.893Z,2.00
2022-12-18T20:11:46.336Z,2.00
2022-12-18T20:14:18.844Z,2.00
2022-12-18T20:16:52.200Z,1.90
2022-12-18T20:19:19.795Z,1.90
2022-12-18T20:21:47.429Z,1.90
2022-12-18T20:24:14.300Z,1.90
2022-12-18T20:26:41.179Z,1.90
2022-12-18T20:29:08.042Z,1.80
2022-12-18T20:31:34.890Z,1.90
2022-12-18T20:34:03.645Z,1.90
2022-12-18T20:36:34.238Z,1.90
2022-12-18T20:39:05.237Z,1.90
2022-12-18T20:41:37.852Z,1.90
2022-12-18T20:44:10.995Z,1.90
2022-12-18T20:46:50.663Z,2.00
2022-12-18T20:49:17.369Z,2.00
2022-12-18T20:51:44.080Z,2.00
2022-12-18T20:54:12.000Z,2.00
2022-12-18T20:56:38.949Z,2.00
2022-12-18T20:59:05.703Z,2.00
2022-12-18T21:01:32.595Z,2.10
2022-12-18T21:04:00.640Z,2.10
2022-12-18T21:06:27.575Z,2.50
2022-12-18T21:08:54.373Z,2.10
2022-12-18T21:11:39.463Z,2.10
2022-12-18T21:14:16.877Z,2.10
2022-12-18T21:16:44.560Z,2.10
2022-12-18T21:19:18.635Z,2.10
2022-12-18T21:21:45.994Z,2.50
2022-12-18T21:24:13.112Z,2.40
2022-12-18T21:26:46.161Z,2.10
2022-12-18T21:29:24.335Z,2.10
2022-12-18T21:31:54.687Z,2.10
2022-12-18T21:34:27.203Z,2.10
2022-12-18T21:36:56.356Z,2.10
2022-12-18T21:39:24.731Z,2.10
2022-12-18T21:42:10.684Z,2.10
2022-12-18T21:44:42.030Z,2.10
2022-12-18T21:47:21.370Z,2.10
2022-12-18T21:49:51.917Z,2.10
2022-12-18T21:52:20.265Z,2.10
2022-12-18T21:54:50.739Z,2.10
2022-12-18T21:57:18.601Z,2.10
2022-12-18T21:59:45.441Z,2.10
2022-12-18T22:02:18.198Z,2.10
2022-12-18T22:04:46.900Z,2.10
2022-12-18T22:07:16.117Z,2.50
2022-12-18T22:09:43.140Z,2.10
2022-12-18T22:12:13.282Z,2.10
2022-12-18T22:14:40.036Z,2.20
2022-12-18T22:17:06.891Z,2.10
2022-12-18T22:19:38.147Z,2.20
2022-12-18T22:22:09.582Z,2.20
2022-12-18T22:24:36.307Z,2.20
2022-12-18T22:27:03.090Z,2.20
2022-12-18T22:29:48.733Z,2.30
2022-12-18T22:32:17.026Z,2.30
2022-12-18T22:34:47.107Z,2.30
2022-12-18T22:37:14.203Z,2.30
2022-12-18T22:39:40.993Z,2.30
2022-12-18T22:42:07.940Z,2.40
2022-12-18T22:44:34.711Z,2.40
2022-12-18T22:47:06.218Z,2.40
2022-12-18T22:49:34.901Z,2.40
2022-12-18T22:52:09.225Z,2.50
2022-12-18T22:54:36.500Z,2.50
2022-12-18T22:57:03.431Z,2.60
2022-12-18T22:59:30.213Z,2.60
2022-12-18T23:01:58.680Z,2.70
2022-12-18T23:04:36.165Z,2.70
2022-12-18T23:07:05.374Z,2.70
2022-12-18T23:09:32.952Z,2.80
2022-12-18T23:12:00.258Z,2.90
2022-12-18T23:14:28.402Z,2.90
2022-12-18T23:16:55.577Z,3.00
2022-12-18T23:19:23.931Z,3.00
2022-12-18T23:21:51.709Z,3.10
2022-12-18T23:24:19.605Z,3.10
2022-12-18T23:26:46.349Z,3.20
2022-12-18T23:29:13.099Z,3.20
2022-12-18T23:31:40.236Z,3.30
2022-12-18T23:34:08.074Z,3.30
2022-12-18T23:36:46.068Z,3.40
2022-12-18T23:39:17.445Z,3.50
2022-12-18T23:41:57.252Z,3.50
2022-12-18T23:44:23.977Z,3.60
2022-12-18T23:46:50.724Z,3.60
2022-12-18T23:49:17.527Z,3.60
2022-12-18T23:51:44.233Z,3.70
2022-12-18T23:54:11.024Z,3.70
2022-12-18T23:56:37.820Z,3.80
2022-12-18T23:59:04.989Z,3.80
